createdAt,value
2018-02-21T00:00:44.402Z,2.6
2018-02-21T00:01:44.407Z,2.56
2018-02-21T00:02:44.672Z,2.56
2018-02-21T00:03:44.689Z,2.53
2018-02-21T00:04:44.704Z,2.6
2018-02-21T00:05:44.462Z,2.46
2018-02-21T00:06:44.473Z,2.5
2018-02-21T00:07:44.752Z,2.54
2018-02-21T00:08:44.546Z,2.54
2018-02-21T00:09:44.806Z,2.53
2018-02-21T00:10:44.518Z,2.54
2018-02-21T00:11:44.779Z,2.54
2018-02-21T00:12:44.543Z,2.44
2018-02-21T00:13:44.803Z,2.42
2018-02-21T00:14:44.820Z,2.42
2018-02-21T00:15:44.830Z,2.43
2018-02-21T00:16:44.842Z,2.44
2018-02-21T00:17:44.598Z,2.38
2018-02-21T00:18:44.861Z,2.57
2018-02-21T00:19:44.882Z,2.51
2018-02-21T00:20:44.887Z,2.54
2018-02-21T00:21:44.903Z,2.56
2018-02-21T00:22:44.404Z,2.56
2018-02-21T00:23:44.929Z,2.54
2018-02-21T00:24:44.937Z,2.56
2018-02-21T00:25:44.950Z,2.56
2018-02-21T00:26:44.763Z,2.56
2018-02-21T00:27:44.715Z,2.57
2018-02-21T00:28:44.989Z,2.53
2018-02-21T00:29:44.994Z,2.5
2018-02-21T00:30:44.746Z,2.56
2018-02-21T00:31:45.015Z,2.46
2018-02-21T00:32:45.027Z,2.43
2018-02-21T00:33:45.039Z,2.5
2018-02-21T00:34:45.054Z,2.54
2018-02-21T00:35:44.809Z,2.43
2018-02-21T00:36:44.564Z,2.49
2018-02-21T00:37:44.834Z,2.56
2018-02-21T00:38:44.846Z,2.49
2018-02-21T00:39:45.112Z,2.51
2018-02-21T00:40:44.877Z,2.39
2018-02-21T00:41:44.941Z,2.38
2018-02-21T00:42:44.890Z,2.42
2018-02-21T00:43:44.903Z,2.51
2018-02-21T00:44:44.912Z,2.49
2018-02-21T00:45:45.185Z,2.46
2018-02-21T00:46:44.681Z,2.47
2018-02-21T00:47:44.954Z,2.46
2018-02-21T00:48:44.964Z,2.43
2018-02-21T00:49:45.225Z,2.43
2018-02-21T00:50:44.967Z,2.44
2018-02-21T00:51:44.727Z,2.53
2018-02-21T00:52:45.247Z,2.46
2018-02-21T00:53:44.999Z,2.61
2018-02-21T00:54:45.033Z,2.54
2018-02-21T00:55:45.308Z,2.47
2018-02-21T00:56:45.360Z,2.5
2018-02-21T00:57:44.815Z,2.49
2018-02-21T00:58:45.076Z,2.43
2018-02-21T00:59:44.836Z,2.44
2018-02-21T01:00:45.100Z,2.42
2018-02-21T01:01:45.111Z,2.43
2018-02-21T01:02:45.382Z,2.44
2018-02-21T01:03:44.882Z,2.54
2018-02-21T01:04:45.150Z,2.39
2018-02-21T01:05:45.161Z,2.51
2018-02-21T01:06:44.916Z,2.43
2018-02-21T01:07:45.434Z,2.47
2018-02-21T01:08:45.197Z,2.47
2018-02-21T01:09:45.459Z,2.5
2018-02-21T01:10:45.467Z,2.47
2018-02-21T01:11:45.282Z,2.42
2018-02-21T01:12:45.246Z,2.47
2018-02-21T01:13:45.252Z,2.39
2018-02-21T01:14:45.264Z,2.46
2018-02-21T01:15:45.020Z,2.47
2018-02-21T01:16:45.543Z,2.38
2018-02-21T01:17:45.556Z,2.38
2018-02-21T01:18:45.567Z,2.38
2018-02-21T01:19:45.377Z,2.46
2018-02-21T01:20:45.593Z,2.53
2018-02-21T01:21:45.347Z,2.51
2018-02-21T01:22:45.611Z,2.43
2018-02-21T01:23:45.627Z,2.61
2018-02-21T01:24:45.638Z,2.56
2018-02-21T01:25:45.650Z,2.61
2018-02-21T01:26:45.664Z,2.6
2018-02-21T01:27:45.674Z,2.5
2018-02-21T01:28:45.429Z,2.57
2018-02-21T01:29:45.694Z,2.62
2018-02-21T01:30:45.704Z,2.47
2018-02-21T01:31:45.717Z,2.56
2018-02-21T01:32:45.474Z,2.57
2018-02-21T01:33:45.492Z,2.6
2018-02-21T01:34:45.802Z,2.53
2018-02-21T01:35:45.765Z,2.6
2018-02-21T01:36:45.522Z,2.57
2018-02-21T01:37:45.539Z,2.57
2018-02-21T01:38:45.803Z,2.51
2018-02-21T01:39:45.562Z,2.44
2018-02-21T01:40:45.827Z,2.43
2018-02-21T01:41:45.326Z,2.44
2018-02-21T01:42:45.599Z,2.42
2018-02-21T01:43:45.861Z,2.38
2018-02-21T01:44:45.629Z,2.35
2018-02-21T01:45:45.889Z,2.36
2018-02-21T01:46:45.894Z,2.35
2018-02-21T01:47:45.652Z,2.43
2018-02-21T01:48:45.921Z,2.42
2018-02-21T01:49:45.980Z,2.43
2018-02-21T01:50:45.690Z,2.31
2018-02-21T01:51:45.695Z,2.26
2018-02-21T01:52:45.456Z,2.2
2018-02-21T01:53:45.974Z,2.25
2018-02-21T01:54:45.733Z,2.2
2018-02-21T01:55:45.748Z,2.28
2018-02-21T01:56:46.010Z,2.25
2018-02-21T01:57:45.767Z,2.15
2018-02-21T01:58:45.788Z,2.26
2018-02-21T01:59:46.049Z,2.2
2018-02-21T02:00:45.802Z,2.31
2018-02-21T02:01:45.812Z,2.28
2018-02-21T02:02:45.823Z,2.38
2018-02-21T02:03:46.096Z,2.35
2018-02-21T02:04:46.157Z,2.36
2018-02-21T02:05:45.861Z,2.32
2018-02-21T02:06:45.880Z,2.32
2018-02-21T02:07:46.140Z,2.42
2018-02-21T02:08:46.150Z,2.28
2018-02-21T02:09:46.013Z,2.35
2018-02-21T02:10:45.920Z,2.32
2018-02-21T02:11:45.932Z,2.29
2018-02-21T02:12:46.203Z,2.31
2018-02-21T02:13:45.955Z,2.28
2018-02-21T02:14:46.219Z,2.38
2018-02-21T02:15:46.256Z,2.38
2018-02-21T02:16:46.001Z,2.29
2018-02-21T02:17:46.253Z,2.24
2018-02-21T02:18:46.012Z,2.24
2018-02-21T02:19:46.071Z,2.35
2018-02-21T02:20:46.033Z,2.28
2018-02-21T02:21:46.297Z,2.24
2018-02-21T02:22:46.362Z,2.25
2018-02-21T02:23:46.068Z,2.32
2018-02-21T02:24:45.828Z,2.31
2018-02-21T02:25:45.836Z,2.29
2018-02-21T02:26:46.353Z,2.28
2018-02-21T02:27:45.863Z,2.31
2018-02-21T02:28:46.132Z,2.32
2018-02-21T02:29:46.396Z,2.26
2018-02-21T02:30:46.408Z,2.31
2018-02-21T02:31:46.420Z,2.24
2018-02-21T02:32:46.178Z,2.2
2018-02-21T02:33:46.186Z,2.24
2018-02-21T02:34:46.454Z,2.25
2018-02-21T02:35:46.465Z,2.28
2018-02-21T02:36:46.369Z,2.24
2018-02-21T02:37:46.496Z,2.24
2018-02-21T02:38:46.504Z,2.33
2018-02-21T02:39:46.516Z,2.26
2018-02-21T02:40:46.013Z,2.31
2018-02-21T02:41:46.284Z,2.29
2018-02-21T02:42:46.293Z,2.32
2018-02-21T02:43:46.561Z,2.38
2018-02-21T02:44:46.323Z,2.29
2018-02-21T02:45:46.329Z,2.33
2018-02-21T02:46:46.617Z,2.28
2018-02-21T02:47:46.610Z,2.29
2018-02-21T02:48:46.381Z,2.32
2018-02-21T02:49:46.638Z,2.38
2018-02-21T02:50:46.675Z,2.38
2018-02-21T02:51:46.706Z,2.43
2018-02-21T02:52:46.663Z,2.46
2018-02-21T02:53:46.682Z,2.47
2018-02-21T02:54:46.690Z,2.42
2018-02-21T02:55:46.452Z,2.35
2018-02-21T02:56:46.457Z,2.25
2018-02-21T02:57:46.466Z,2.29
2018-02-21T02:58:46.479Z,2.28
2018-02-21T02:59:46.493Z,2.31
2018-02-21T03:00:46.506Z,2.43
2018-02-21T03:01:46.767Z,2.31
2018-02-21T03:02:46.531Z,2.31
2018-02-21T03:03:46.800Z,2.29
2018-02-21T03:04:46.807Z,2.31
2018-02-21T03:05:46.538Z,2.38
2018-02-21T03:06:46.602Z,2.38
2018-02-21T03:07:46.594Z,2.42
2018-02-21T03:08:46.596Z,2.39
2018-02-21T03:09:46.607Z,2.42
2018-02-21T03:10:46.618Z,2.28
2018-02-21T03:11:46.878Z,2.22
2018-02-21T03:12:46.642Z,2.38
2018-02-21T03:13:46.908Z,2.42
2018-02-21T03:14:46.920Z,2.28
2018-02-21T03:15:46.933Z,2.2
2018-02-21T03:16:46.692Z,2.13
2018-02-21T03:17:46.699Z,1.91
2018-02-21T03:18:46.709Z,1.87
2018-02-21T03:19:46.998Z,1.95
2018-02-21T03:20:46.990Z,2.04
2018-02-21T03:21:46.796Z,2.11
2018-02-21T03:22:47.009Z,2.15
2018-02-21T03:23:46.772Z,2.04
2018-02-21T03:24:47.051Z,2.07
2018-02-21T03:25:46.798Z,2.07
2018-02-21T03:26:47.066Z,1.88
2018-02-21T03:27:46.821Z,2.08
2018-02-21T03:28:46.829Z,2.1
2018-02-21T03:29:46.847Z,2.07
2018-02-21T03:30:47.117Z,2.08
2018-02-21T03:31:46.874Z,2.04
2018-02-21T03:32:46.629Z,1.88
2018-02-21T03:33:47.148Z,1.94
2018-02-21T03:34:47.157Z,2.07
2018-02-21T03:35:46.913Z,2.11
2018-02-21T03:36:47.232Z,2.07
2018-02-21T03:37:47.189Z,2.07
2018-02-21T03:38:47.201Z,2.1
2018-02-21T03:39:46.958Z,2.18
2018-02-21T03:40:46.969Z,2.22
2018-02-21T03:41:47.233Z,2.22
2018-02-21T03:42:46.995Z,2.28
2018-02-21T03:43:47.262Z,2.38
2018-02-21T03:44:47.274Z,2.31
2018-02-21T03:45:46.773Z,2.42
2018-02-21T03:46:47.295Z,2.26
2018-02-21T03:47:47.054Z,2.44
2018-02-21T03:48:47.315Z,2.53
2018-02-21T03:49:47.076Z,2.54
2018-02-21T03:50:47.090Z,2.49
2018-02-21T03:51:47.403Z,2.49
2018-02-21T03:52:47.129Z,2.54
2018-02-21T03:53:47.376Z,2.54
2018-02-21T03:54:47.136Z,2.56
2018-02-21T03:55:47.149Z,2.57
2018-02-21T03:56:47.423Z,2.46
2018-02-21T03:57:47.171Z,2.54
2018-02-21T03:58:47.182Z,2.56
2018-02-21T03:59:47.199Z,2.56
2018-02-21T04:00:47.206Z,2.56
2018-02-21T04:01:47.227Z,2.54
2018-02-21T04:02:47.231Z,2.53
2018-02-21T04:03:47.492Z,2.39
2018-02-21T04:04:47.506Z,2.35
2018-02-21T04:05:47.526Z,2.29
2018-02-21T04:06:47.284Z,2.42
2018-02-21T04:07:47.338Z,2.31
2018-02-21T04:08:47.553Z,2.35
2018-02-21T04:09:47.571Z,2.22
2018-02-21T04:10:47.584Z,2.24
2018-02-21T04:11:47.590Z,2.13
2018-02-21T04:12:47.350Z,1.99
2018-02-21T04:13:47.361Z,2.07
2018-02-21T04:14:47.380Z,1.94
2018-02-21T04:15:47.638Z,1.92
2018-02-21T04:16:47.398Z,1.81
2018-02-21T04:17:47.410Z,1.84
2018-02-21T04:18:47.699Z,1.74
2018-02-21T04:19:47.432Z,1.63
2018-02-21T04:20:47.441Z,1.67
2018-02-21T04:21:47.715Z,1.62
2018-02-21T04:22:47.779Z,1.56
2018-02-21T04:23:47.752Z,1.66
2018-02-21T04:24:47.492Z,1.63
2018-02-21T04:25:47.247Z,1.48
2018-02-21T04:26:47.258Z,1.49
2018-02-21T04:27:47.268Z,1.53
2018-02-21T04:28:47.537Z,1.59
2018-02-21T04:29:47.803Z,1.58
2018-02-21T04:30:47.304Z,1.62
2018-02-21T04:31:47.826Z,1.63
2018-02-21T04:32:47.580Z,1.7
2018-02-21T04:33:47.591Z,1.6
2018-02-21T04:34:47.605Z,1.71
2018-02-21T04:35:47.367Z,1.68
2018-02-21T04:36:47.983Z,1.66
2018-02-21T04:37:47.945Z,1.53
2018-02-21T04:38:47.905Z,1.42
2018-02-21T04:39:47.406Z,1.5
2018-02-21T04:40:47.418Z,1.37
2018-02-21T04:41:47.685Z,1.3
2018-02-21T04:42:47.952Z,1.37
2018-02-21T04:43:47.709Z,1.31
2018-02-21T04:44:47.716Z,1.48
2018-02-21T04:45:47.746Z,1.62
2018-02-21T04:46:48.004Z,1.49
2018-02-21T04:47:48.006Z,1.45
2018-02-21T04:48:47.768Z,1.48
2018-02-21T04:49:48.026Z,1.49
2018-02-21T04:50:47.800Z,1.44
2018-02-21T04:51:48.056Z,1.44
2018-02-21T04:52:48.113Z,1.56
2018-02-21T04:53:47.822Z,1.41
2018-02-21T04:54:47.833Z,1.49
2018-02-21T04:55:47.591Z,1.44
2018-02-21T04:56:47.602Z,1.34
2018-02-21T04:57:47.930Z,1.32
2018-02-21T04:58:47.882Z,1.31
2018-02-21T04:59:47.893Z,1.24
2018-02-21T05:00:48.258Z,1.2
2018-02-21T05:01:47.908Z,1.22
2018-02-21T05:02:48.173Z,1.13
2018-02-21T05:03:47.695Z,1.26
2018-02-21T05:04:47.948Z,1.24
2018-02-21T05:05:48.226Z,1.34
2018-02-21T05:06:47.717Z,1.16
2018-02-21T05:07:48.238Z,1.3
2018-02-21T05:08:48.252Z,1.28
2018-02-21T05:09:48.001Z,1.31
2018-02-21T05:10:48.017Z,1.4
2018-02-21T05:11:48.273Z,1.34
2018-02-21T05:12:48.033Z,1.2
2018-02-21T05:13:48.304Z,1.3
2018-02-21T05:14:48.107Z,1.24
2018-02-21T05:15:48.066Z,1.2
2018-02-21T05:16:48.335Z,1.17
2018-02-21T05:17:48.100Z,1.19
2018-02-21T05:18:48.360Z,1.3
2018-02-21T05:19:48.378Z,1.34
2018-02-21T05:20:48.378Z,1.41
2018-02-21T05:21:48.386Z,1.48
2018-02-21T05:22:48.151Z,1.52
2018-02-21T05:23:48.157Z,1.58
2018-02-21T05:24:48.174Z,1.53
2018-02-21T05:25:47.945Z,1.55
2018-02-21T05:26:48.196Z,1.55
2018-02-21T05:27:48.202Z,1.58
2018-02-21T05:28:48.465Z,1.52
2018-02-21T05:29:48.526Z,1.3
2018-02-21T05:30:48.492Z,1.3
2018-02-21T05:31:48.273Z,1.45
2018-02-21T05:32:48.521Z,1.41
2018-02-21T05:33:48.266Z,1.45
2018-02-21T05:34:48.533Z,1.44
2018-02-21T05:35:48.295Z,1.48
2018-02-21T05:36:48.558Z,1.5
2018-02-21T05:37:48.571Z,1.55
2018-02-21T05:38:48.326Z,1.5
2018-02-21T05:39:48.592Z,1.45
2018-02-21T05:40:48.600Z,1.49
2018-02-21T05:41:48.641Z,1.44
2018-02-21T05:42:48.626Z,1.49
2018-02-21T05:43:48.383Z,1.58
2018-02-21T05:44:48.698Z,1.55
2018-02-21T05:45:48.657Z,1.68
2018-02-21T05:46:48.166Z,1.63
2018-02-21T05:47:48.434Z,1.7
2018-02-21T05:48:48.447Z,1.74
2018-02-21T05:49:48.804Z,1.73
2018-02-21T05:50:48.208Z,1.76
2018-02-21T05:51:48.729Z,1.8
2018-02-21T05:52:48.744Z,1.87
2018-02-21T05:53:48.755Z,1.73
2018-02-21T05:54:48.515Z,1.7
2018-02-21T05:55:48.774Z,1.73
2018-02-21T05:56:48.529Z,1.77
2018-02-21T05:57:48.809Z,1.71
2018-02-21T05:58:48.815Z,1.87
2018-02-21T05:59:48.426Z,1.84
2018-02-21T06:00:48.833Z,1.76
2018-02-21T06:01:48.849Z,1.78
2018-02-21T06:02:48.860Z,1.76
2018-02-21T06:03:48.863Z,1.63
2018-02-21T06:04:48.620Z,1.68
2018-02-21T06:05:48.891Z,1.71
2018-02-21T06:06:48.646Z,1.78
2018-02-21T06:07:48.660Z,1.77
2018-02-21T06:08:48.665Z,1.78
2018-02-21T06:09:48.931Z,1.81
2018-02-21T06:10:48.948Z,1.81
2018-02-21T06:11:48.700Z,1.84
2018-02-21T06:12:48.461Z,1.71
2018-02-21T06:13:48.727Z,1.5
2018-02-21T06:14:49.137Z,1.5
2018-02-21T06:15:49.003Z,1.44
2018-02-21T06:16:49.016Z,1.55
2018-02-21T06:17:48.779Z,1.45
2018-02-21T06:18:49.045Z,1.44
2018-02-21T06:19:49.044Z,1.62
2018-02-21T06:20:48.805Z,1.74
2018-02-21T06:21:49.088Z,1.77
2018-02-21T06:22:48.826Z,1.76
2018-02-21T06:23:49.092Z,1.67
2018-02-21T06:24:49.102Z,1.85
2018-02-21T06:25:48.859Z,2
2018-02-21T06:26:49.139Z,1.95
2018-02-21T06:27:49.142Z,1.89
2018-02-21T06:28:49.157Z,1.76
2018-02-21T06:29:48.710Z,1.76
2018-02-21T06:30:49.197Z,1.7
2018-02-21T06:31:48.933Z,1.74
2018-02-21T06:32:48.946Z,1.7
2018-02-21T06:33:49.215Z,1.78
2018-02-21T06:34:48.972Z,1.7
2018-02-21T06:35:49.234Z,1.71
2018-02-21T06:36:48.987Z,1.7
2018-02-21T06:37:49.000Z,1.68
2018-02-21T06:38:49.012Z,1.66
2018-02-21T06:39:49.275Z,1.73
2018-02-21T06:40:48.777Z,1.66
2018-02-21T06:41:49.297Z,1.76
2018-02-21T06:42:49.053Z,1.66
2018-02-21T06:43:49.126Z,1.62
2018-02-21T06:44:49.127Z,1.66
2018-02-21T06:45:49.092Z,1.52
2018-02-21T06:46:48.851Z,1.49
2018-02-21T06:47:49.366Z,1.4
2018-02-21T06:48:49.381Z,1.38
2018-02-21T06:49:49.386Z,1.44
2018-02-21T06:50:49.161Z,1.26
2018-02-21T06:51:48.903Z,1.42
2018-02-21T06:52:49.420Z,1.31
2018-02-21T06:53:49.179Z,1.24
2018-02-21T06:54:49.451Z,1.24
2018-02-21T06:55:49.202Z,1.34
2018-02-21T06:56:49.470Z,1.4
2018-02-21T06:57:49.228Z,1.53
2018-02-21T06:58:49.239Z,1.44
2018-02-21T06:59:49.664Z,1.7
2018-02-21T07:00:49.514Z,1.76
2018-02-21T07:01:49.588Z,1.81
2018-02-21T07:02:49.287Z,1.77
2018-02-21T07:03:49.292Z,1.78
2018-02-21T07:04:49.560Z,1.7
2018-02-21T07:05:49.569Z,1.74
2018-02-21T07:06:49.587Z,1.74
2018-02-21T07:07:49.337Z,1.6
2018-02-21T07:08:49.350Z,1.7
2018-02-21T07:09:49.360Z,1.58
2018-02-21T07:10:49.375Z,1.68
2018-02-21T07:11:49.386Z,1.78
2018-02-21T07:12:49.655Z,1.77
2018-02-21T07:13:49.671Z,1.92
2018-02-21T07:14:49.469Z,1.73
2018-02-21T07:15:49.183Z,1.6
2018-02-21T07:16:49.695Z,1.6
2018-02-21T07:17:49.710Z,1.66
2018-02-21T07:18:49.468Z,1.63
2018-02-21T07:19:49.744Z,1.62
2018-02-21T07:20:49.491Z,1.71
2018-02-21T07:21:49.763Z,1.74
2018-02-21T07:22:49.519Z,1.73
2018-02-21T07:23:49.530Z,1.8
2018-02-21T07:24:49.790Z,1.99
2018-02-21T07:25:49.803Z,1.91
2018-02-21T07:26:49.812Z,1.91
2018-02-21T07:27:49.572Z,1.85
2018-02-21T07:28:49.584Z,1.81
2018-02-21T07:29:49.895Z,1.89
2018-02-21T07:30:49.603Z,1.87
2018-02-21T07:31:49.620Z,1.68
2018-02-21T07:32:49.906Z,1.7
2018-02-21T07:33:49.909Z,1.76
2018-02-21T07:34:49.913Z,1.91
2018-02-21T07:35:49.665Z,1.84
2018-02-21T07:36:49.674Z,1.94
2018-02-21T07:37:49.687Z,1.68
2018-02-21T07:38:49.703Z,1.52
2018-02-21T07:39:49.979Z,1.3
2018-02-21T07:40:49.977Z,1.34
2018-02-21T07:41:49.735Z,1.35
2018-02-21T07:42:49.999Z,1.48
2018-02-21T07:43:50.025Z,1.44
2018-02-21T07:44:50.074Z,1.44
2018-02-21T07:45:50.041Z,1.49
2018-02-21T07:46:49.792Z,1.55
2018-02-21T07:47:49.808Z,1.63
2018-02-21T07:48:49.815Z,1.7
2018-02-21T07:49:50.078Z,1.81
2018-02-21T07:50:49.835Z,1.77
2018-02-21T07:51:49.851Z,1.8
2018-02-21T07:52:49.863Z,1.7
2018-02-21T07:53:49.876Z,1.88
2018-02-21T07:54:50.142Z,1.91
2018-02-21T07:55:50.154Z,1.89
2018-02-21T07:56:50.180Z,2.11
2018-02-21T07:57:50.173Z,2.1
2018-02-21T07:58:50.193Z,2.13
2018-02-21T07:59:50.253Z,2.11
2018-02-21T08:00:50.220Z,1.91
2018-02-21T08:01:49.971Z,2.02
2018-02-21T08:02:49.993Z,1.99
2018-02-21T08:03:50.247Z,2.17
2018-02-21T08:04:50.005Z,2.25
2018-02-21T08:05:50.019Z,2.2
2018-02-21T08:06:50.285Z,2.14
2018-02-21T08:07:50.041Z,2.26
2018-02-21T08:08:50.315Z,2.31
2018-02-21T08:09:50.322Z,2.44
2018-02-21T08:10:50.078Z,2.53
2018-02-21T08:11:50.339Z,2.53
2018-02-21T08:12:50.357Z,2.62
2018-02-21T08:13:50.117Z,2.43
2018-02-21T08:14:50.378Z,2.65
2018-02-21T08:15:50.201Z,2.67
2018-02-21T08:16:50.152Z,2.69
2018-02-21T08:17:50.415Z,2.64
2018-02-21T08:18:50.205Z,2.61
2018-02-21T08:19:50.187Z,2.62
2018-02-21T08:20:50.584Z,2.68
2018-02-21T08:21:50.211Z,2.85
2018-02-21T08:22:50.504Z,2.8
2018-02-21T08:23:50.234Z,2.93
2018-02-21T08:24:49.995Z,2.97
2018-02-21T08:25:50.266Z,3.08
2018-02-21T08:26:50.531Z,3.13
2018-02-21T08:27:50.285Z,3.18
2018-02-21T08:28:50.556Z,3.26
2018-02-21T08:29:50.569Z,3.19
2018-02-21T08:30:50.388Z,3.19
2018-02-21T08:31:50.592Z,3.14
2018-02-21T08:32:50.655Z,3.03
2018-02-21T08:33:50.622Z,3.18
2018-02-21T08:34:50.376Z,3.03
2018-02-21T08:35:50.440Z,3.07
2018-02-21T08:36:50.405Z,2.93
2018-02-21T08:37:50.414Z,3.04
2018-02-21T08:38:50.428Z,2.97
2018-02-21T08:39:50.438Z,3.04
2018-02-21T08:40:50.452Z,3.04
2018-02-21T08:41:50.462Z,3.03
2018-02-21T08:42:50.477Z,3
2018-02-21T08:43:50.747Z,3.03
2018-02-21T08:44:50.753Z,3.05
2018-02-21T08:45:50.817Z,3.18
2018-02-21T08:46:50.782Z,3.13
2018-02-21T08:47:50.541Z,3.21
2018-02-21T08:48:50.799Z,3.1
2018-02-21T08:49:50.567Z,3.07
2018-02-21T08:50:50.573Z,3.04
2018-02-21T08:51:50.838Z,3.13
2018-02-21T08:52:50.607Z,3.13
2018-02-21T08:53:50.891Z,3.16
2018-02-21T08:54:50.875Z,3.22
2018-02-21T08:55:50.894Z,3.19
2018-02-21T08:56:50.395Z,3.4
2018-02-21T08:57:50.914Z,3.29
2018-02-21T08:58:50.748Z,3.41
2018-02-21T08:59:50.686Z,3.53
2018-02-21T09:00:50.750Z,3.65
2018-02-21T09:01:50.709Z,3.7
2018-02-21T09:02:50.729Z,3.69
2018-02-21T09:03:50.484Z,3.7
2018-02-21T09:04:51.016Z,3.78
2018-02-21T09:05:51.021Z,3.88
2018-02-21T09:06:50.775Z,3.77
2018-02-21T09:07:51.045Z,3.77
2018-02-21T09:08:50.818Z,4.02
2018-02-21T09:09:50.816Z,3.96
2018-02-21T09:10:50.576Z,3.78
2018-02-21T09:11:50.845Z,3.91
2018-02-21T09:12:51.109Z,3.95
2018-02-21T09:13:51.126Z,3.94
2018-02-21T09:14:51.138Z,3.84
2018-02-21T09:15:51.045Z,3.96
2018-02-21T09:16:51.161Z,3.87
2018-02-21T09:17:50.926Z,3.87
2018-02-21T09:18:51.185Z,3.92
2018-02-21T09:19:50.954Z,4.05
2018-02-21T09:20:51.254Z,4.12
2018-02-21T09:21:51.348Z,4.2
2018-02-21T09:22:51.246Z,4.32
2018-02-21T09:23:51.251Z,4.23
2018-02-21T09:24:51.272Z,4.17
2018-02-21T09:25:51.283Z,4.1
2018-02-21T09:26:51.041Z,4.02
2018-02-21T09:27:51.306Z,4.02
2018-02-21T09:28:51.066Z,4.13
2018-02-21T09:29:51.335Z,4.2
2018-02-21T09:30:51.395Z,4.2
2018-02-21T09:31:51.363Z,4.4
2018-02-21T09:32:51.119Z,4.66
2018-02-21T09:33:51.132Z,4.59
2018-02-21T09:34:51.401Z,4.77
2018-02-21T09:35:51.162Z,4.68
2018-02-21T09:36:51.188Z,4.63
2018-02-21T09:37:51.445Z,4.67
2018-02-21T09:38:51.454Z,4.74
2018-02-21T09:39:51.471Z,4.75
2018-02-21T09:40:51.495Z,4.87
2018-02-21T09:41:51.500Z,5
2018-02-21T09:42:51.261Z,5.11
2018-02-21T09:43:51.277Z,5.04
2018-02-21T09:44:51.301Z,5.05
2018-02-21T09:45:51.304Z,4.89
2018-02-21T09:46:51.318Z,4.82
2018-02-21T09:47:51.331Z,4.86
2018-02-21T09:48:51.351Z,4.92
2018-02-21T09:49:51.359Z,4.86
2018-02-21T09:50:51.639Z,4.71
2018-02-21T09:51:51.395Z,4.74
2018-02-21T09:52:51.706Z,4.77
2018-02-21T09:53:51.167Z,4.87
2018-02-21T09:54:51.692Z,4.9
2018-02-21T09:55:51.711Z,4.89
2018-02-21T09:56:51.461Z,4.84
2018-02-21T09:57:51.730Z,4.94
2018-02-21T09:58:51.498Z,5.14
2018-02-21T09:59:51.763Z,5.15
2018-02-21T10:00:51.270Z,5.33
2018-02-21T10:01:51.793Z,5.38
2018-02-21T10:02:51.808Z,5.56
2018-02-21T10:03:51.569Z,5.59
2018-02-21T10:04:51.350Z,5.72
2018-02-21T10:05:51.344Z,5.87
2018-02-21T10:06:51.356Z,5.9
2018-02-21T10:07:51.939Z,5.84
2018-02-21T10:08:51.391Z,6.01
2018-02-21T10:09:51.401Z,6.11
2018-02-21T10:10:51.420Z,6.07
2018-02-21T10:11:51.448Z,6.07
2018-02-21T10:12:51.958Z,5.79
2018-02-21T10:13:51.973Z,5.76
2018-02-21T10:14:51.739Z,5.8
2018-02-21T10:15:52.026Z,5.87
2018-02-21T10:16:51.770Z,5.97
2018-02-21T10:17:51.801Z,6.09
2018-02-21T10:18:51.797Z,6.14
2018-02-21T10:19:51.817Z,6.2
2018-02-21T10:20:52.092Z,6.14
2018-02-21T10:21:51.840Z,6.19
2018-02-21T10:22:51.910Z,6.11
2018-02-21T10:23:52.255Z,6.07
2018-02-21T10:24:52.145Z,6.08
2018-02-21T10:25:52.157Z,5.93
2018-02-21T10:26:52.180Z,6.02
2018-02-21T10:27:52.217Z,5.76
2018-02-21T10:28:52.203Z,5.71
2018-02-21T10:29:52.223Z,5.64
2018-02-21T10:30:51.727Z,5.65
2018-02-21T10:31:52.261Z,5.69
2018-02-21T10:32:52.019Z,5.97
2018-02-21T10:33:52.033Z,5.98
2018-02-21T10:34:52.302Z,6.02
2018-02-21T10:35:51.811Z,6.01
2018-02-21T10:36:52.332Z,6.2
2018-02-21T10:37:52.352Z,6.46
2018-02-21T10:38:52.160Z,6.54
2018-02-21T10:39:52.411Z,6.54
2018-02-21T10:40:52.393Z,6.42
2018-02-21T10:41:51.900Z,6.51
2018-02-21T10:42:52.169Z,6.48
2018-02-21T10:43:51.933Z,6.41
2018-02-21T10:44:52.204Z,6.44
2018-02-21T10:45:51.964Z,6.44
2018-02-21T10:46:52.234Z,6.44
2018-02-21T10:47:52.504Z,6.46
2018-02-21T10:48:52.522Z,6.38
2018-02-21T10:49:52.280Z,6.24
2018-02-21T10:50:52.047Z,6.24
2018-02-21T10:51:52.059Z,6.28
2018-02-21T10:52:52.328Z,6.49
2018-02-21T10:53:52.650Z,6.49
2018-02-21T10:54:52.612Z,6.54
2018-02-21T10:55:52.623Z,6.57
2018-02-21T10:56:52.389Z,6.57
2018-02-21T10:57:52.657Z,6.57
2018-02-21T10:58:52.676Z,6.64
2018-02-21T10:59:52.437Z,6.7
2018-02-21T11:00:52.713Z,6.57
2018-02-21T11:01:52.724Z,6.72
2018-02-21T11:02:52.480Z,6.66
2018-02-21T11:03:52.504Z,6.64
2018-02-21T11:04:52.805Z,6.74
2018-02-21T11:05:52.786Z,6.75
2018-02-21T11:06:52.293Z,6.87
2018-02-21T11:07:52.822Z,6.97
2018-02-21T11:08:52.992Z,7.11
2018-02-21T11:09:52.615Z,7.32
2018-02-21T11:10:52.871Z,7.4
2018-02-21T11:11:52.886Z,7.4
2018-02-21T11:12:52.904Z,7.73
2018-02-21T11:13:52.964Z,8.01
2018-02-21T11:14:52.426Z,8.24
2018-02-21T11:15:52.954Z,8.51
2018-02-21T11:16:52.967Z,8.49
2018-02-21T11:17:52.992Z,8.73
2018-02-21T11:18:52.755Z,8.69
2018-02-21T11:19:52.777Z,8.73
2018-02-21T11:20:52.788Z,8.52
2018-02-21T11:21:52.552Z,8.61
2018-02-21T11:22:52.824Z,8.44
2018-02-21T11:23:52.891Z,8.46
2018-02-21T11:24:53.231Z,8.16
2018-02-21T11:25:52.880Z,8.26
2018-02-21T11:26:52.897Z,8.1
2018-02-21T11:27:52.914Z,7.85
2018-02-21T11:28:52.990Z,7.69
2018-02-21T11:29:52.950Z,7.57
2018-02-21T11:30:52.973Z,7.58
2018-02-21T11:31:52.994Z,7.5
2018-02-21T11:32:53.007Z,7.47
2018-02-21T11:33:53.285Z,7.4
2018-02-21T11:34:53.304Z,7.32
2018-02-21T11:35:53.054Z,7.39
2018-02-21T11:36:53.329Z,7.45
2018-02-21T11:37:53.100Z,7.31
2018-02-21T11:38:53.361Z,7.18
2018-02-21T11:39:53.224Z,7.21
2018-02-21T11:40:52.886Z,7.2
2018-02-21T11:41:53.161Z,7.42
2018-02-21T11:42:52.920Z,7.6
2018-02-21T11:43:53.445Z,7.72
2018-02-21T11:44:53.465Z,7.72
2018-02-21T11:45:53.227Z,7.69
2018-02-21T11:46:53.498Z,7.73
2018-02-21T11:47:53.264Z,7.87
2018-02-21T11:48:53.302Z,7.72
2018-02-21T11:49:53.146Z,7.58
2018-02-21T11:50:53.364Z,7.82
2018-02-21T11:51:53.583Z,7.85
2018-02-21T11:52:53.600Z,8.1
2018-02-21T11:53:53.369Z,8.36
2018-02-21T11:54:53.177Z,8.2
2018-02-21T11:55:53.656Z,8.49
2018-02-21T11:56:53.674Z,8.78
2018-02-21T11:57:53.434Z,9
2018-02-21T11:58:53.720Z,9.29
2018-02-21T11:59:53.742Z,9.56
2018-02-21T12:00:53.755Z,9.91
2018-02-21T12:01:53.815Z,10.1
2018-02-21T12:02:53.790Z,9.91
2018-02-21T12:03:53.841Z,10.23
2018-02-21T12:04:53.773Z,10.34
2018-02-21T12:05:53.845Z,10.41
2018-02-21T12:06:53.866Z,10.51
2018-02-21T12:07:53.634Z,10.51
2018-02-21T12:08:53.909Z,10.63
2018-02-21T12:09:53.978Z,10.48
2018-02-21T12:10:53.948Z,10.6
2018-02-21T12:11:53.969Z,10.74
2018-02-21T12:12:53.989Z,11.02
2018-02-21T12:13:54.017Z,11.05
2018-02-21T12:14:53.781Z,11.23
2018-02-21T12:15:54.051Z,10.97
2018-02-21T12:16:54.072Z,10.3
2018-02-21T12:17:53.839Z,10.3
2018-02-21T12:18:54.125Z,10.26
2018-02-21T12:19:54.141Z,10.64
2018-02-21T12:20:53.903Z,10.59
2018-02-21T12:21:54.182Z,10.51
2018-02-21T12:22:54.197Z,10.61
2018-02-21T12:23:53.963Z,10.67
2018-02-21T12:24:54.235Z,10.19
2018-02-21T12:25:53.802Z,10.15
2018-02-21T12:26:54.282Z,10.01
2018-02-21T12:27:54.309Z,9.86
2018-02-21T12:28:54.322Z,9.37
2018-02-21T12:29:54.350Z,9.18
2018-02-21T12:30:54.380Z,8.82
2018-02-21T12:31:54.382Z,8.78
2018-02-21T12:32:54.147Z,8.71
2018-02-21T12:33:54.433Z,8.7
2018-02-21T12:34:54.512Z,8.97
2018-02-21T12:35:54.456Z,9.41
2018-02-21T12:36:54.221Z,9.84
2018-02-21T12:37:54.243Z,10.02
2018-02-21T12:38:54.279Z,10.48
2018-02-21T12:39:54.541Z,10.63
2018-02-21T12:40:54.199Z,11.05
2018-02-21T12:41:54.580Z,11.35
2018-02-21T12:42:54.344Z,11.62
2018-02-21T12:43:54.679Z,12.36
2018-02-21T12:44:54.642Z,12.8
2018-02-21T12:45:54.662Z,12.98
2018-02-21T12:46:54.433Z,13.49
2018-02-21T12:47:54.453Z,13.87
2018-02-21T12:48:54.478Z,13.85
2018-02-21T12:49:54.753Z,13.75
2018-02-21T12:50:54.781Z,13.42
2018-02-21T12:51:54.800Z,13.25
2018-02-21T12:52:54.821Z,13.38
2018-02-21T12:53:54.870Z,13.78
2018-02-21T12:54:54.615Z,14.28
2018-02-21T12:55:54.687Z,14.7
2018-02-21T12:56:54.918Z,15.18
2018-02-21T12:57:54.948Z,15.36
2018-02-21T12:58:54.966Z,15.58
2018-02-21T12:59:54.993Z,15.68
2018-02-21T13:00:55.021Z,16.08
2018-02-21T13:01:54.799Z,16.56
2018-02-21T13:02:54.829Z,16.84
2018-02-21T13:03:55.096Z,17.24
2018-02-21T13:04:55.138Z,17.49
2018-02-21T13:05:54.948Z,17.57
2018-02-21T13:06:55.175Z,17.72
2018-02-21T13:07:54.950Z,17.56
2018-02-21T13:08:54.978Z,17.42
2018-02-21T13:09:55.013Z,17.3
2018-02-21T13:10:55.085Z,17.01
2018-02-21T13:11:55.396Z,16.64
2018-02-21T13:12:55.084Z,16.2
2018-02-21T13:13:55.121Z,15.72
2018-02-21T13:14:55.404Z,14.78
2018-02-21T13:15:55.167Z,14.33
2018-02-21T13:16:55.191Z,14.55
2018-02-21T13:17:55.468Z,15.1
2018-02-21T13:18:55.243Z,15.67
2018-02-21T13:19:55.274Z,15.68